Hovedside
METAR-TAF:

METAR-TAF

Lufthavner :

Esbjerg lufthavn

Esbjerg, Danmark

breddegrad: 55-32N, lengdegrad: 008-34E, høyde over havet: 30 m

Gjeldene værobservasjon

Denne rapporten ble laget for 39 minutter siden, klokken 13:50 UTC
Vind 14 kt fra Vest
Temperatur 21°C
Luftfuktighet 53%
Trykk 1018 hPa
Sikt 10 km eller mer

METAR: EKEB 181350Z AUTO 28014KT 9999NDV NCD 21/11 Q1018

Tid: 16:29 (14:29 UTC)

Varsel

Denne rapporten ble laget for 2 timer og 58 minutter siden, klokken 11:31 UTC
Varsel gyldig fra 18. klokken 12 UTC til 18. klokken 21 UTC
Vind 10 kt fra Vest
Sikt 10 km eller mer
Spredte skyer i en høyde av 1800 ft

TAF: EKEB 181131Z 1812/1821 28010KT 9999 SCT018

Værobservasjoner og værvarsel for over 4000 flyplasser (METAR- og TAF-rapporter).

Tilgjengelige stasjoner er representert av de røde og gule prikkene på kartet.

Hold musepekeren over prikken for å se navnet på stasjonen.

Klikk så for å se værobservasjoner og -varsler.

For å forandre kartet kan du klikke på den grønne knappen med svart kryss for å zoome inn, på den grønne knappen med strek for å zoome ut, eller på de grønne pilene for å se tilstøtende kart.


METAR-TAF: